createdAt,value
2022-12-27T00:02:17.511Z,11.88
2022-12-27T00:04:45.900Z,12.32
2022-12-27T00:07:14.498Z,14.10
2022-12-27T00:09:41.920Z,14.00
2022-12-27T00:12:09.758Z,14.27
2022-12-27T00:14:37.228Z,15.55
2022-12-27T00:17:04.675Z,13.32
2022-12-27T00:19:32.145Z,14.25
2022-12-27T00:21:59.786Z,12.43
2022-12-27T00:24:27.162Z,14.18
2022-12-27T00:26:54.576Z,12.55
2022-12-27T00:29:22.016Z,13.82
2022-12-27T00:31:50.497Z,11.52
2022-12-27T00:34:17.946Z,12.77
2022-12-27T00:36:45.286Z,11.98
2022-12-27T00:39:12.679Z,13.60
2022-12-27T00:41:40.089Z,12.23
2022-12-27T00:44:07.557Z,11.95
2022-12-27T00:46:34.955Z,17.73
2022-12-27T00:49:02.483Z,14.88
2022-12-27T00:51:30.955Z,14.00
2022-12-27T00:53:58.548Z,14.30
2022-12-27T00:56:31.041Z,15.50
2022-12-27T00:59:04.203Z,16.02
2022-12-27T01:01:35.218Z,16.20
2022-12-27T01:04:03.656Z,14.95
2022-12-27T01:06:32.938Z,15.05
2022-12-27T01:09:01.601Z,14.93
2022-12-27T01:11:30.002Z,16.25
2022-12-27T01:13:59.926Z,15.27
2022-12-27T01:16:30.590Z,16.55
2022-12-27T01:18:59.071Z,16.60
2022-12-27T01:21:27.597Z,18.05
2022-12-27T01:23:55.581Z,14.52
2022-12-27T01:26:24.387Z,16.92
2022-12-27T01:28:53.101Z,16.65
2022-12-27T01:31:23.452Z,16.52
2022-12-27T01:33:55.393Z,17.10
2022-12-27T01:36:24.530Z,17.63
2022-12-27T01:38:52.471Z,19.38
2022-12-27T01:41:41.503Z,16.65
2022-12-27T01:44:39.891Z,16.58
2022-12-27T01:47:13.172Z,17.92
2022-12-27T01:49:44.087Z,17.65
2022-12-27T01:52:12.808Z,19.65
2022-12-27T01:54:41.452Z,17.73
2022-12-27T01:57:09.671Z,16.15
2022-12-27T01:59:37.847Z,18.75
2022-12-27T02:02:05.761Z,18.98
2022-12-27T02:04:35.022Z,18.00
2022-12-27T02:07:02.614Z,18.02
2022-12-27T02:09:38.743Z,16.02
2022-12-27T02:12:07.615Z,16.33
2022-12-27T02:14:37.969Z,20.98
2022-12-27T02:17:11.790Z,16.00
2022-12-27T02:19:42.304Z,15.95
2022-12-27T02:23:03.928Z,15.73
2022-12-27T02:26:07.897Z,15.52
2022-12-27T02:28:56.500Z,15.13
2022-12-27T02:31:45.557Z,16.98
2022-12-27T02:34:21.816Z,14.80
2022-12-27T02:36:53.440Z,16.30
2022-12-27T02:39:22.292Z,14.38
2022-12-27T02:42:08.300Z,15.73
2022-12-27T02:44:55.286Z,14.02
2022-12-27T02:47:43.616Z,15.70
2022-12-27T02:50:33.359Z,15.52
2022-12-27T02:53:29.463Z,16.52
2022-12-27T02:56:25.766Z,16.15
2022-12-27T02:59:11.815Z,17.30
2022-12-27T03:02:35.049Z,15.63
2022-12-27T03:05:29.887Z,20.08
2022-12-27T03:08:22.980Z,17.27
2022-12-27T03:11:18.321Z,19.75
2022-12-27T03:14:18.172Z,15.05
2022-12-27T03:16:58.269Z,18.40
2022-12-27T03:19:52.335Z,17.95
2022-12-27T03:22:43.277Z,16.52
2022-12-27T03:25:29.329Z,15.75
2022-12-27T03:28:27.628Z,15.70
2022-12-27T03:31:30.374Z,17.17
2022-12-27T03:34:27.510Z,15.88
2022-12-27T03:37:14.781Z,16.73
2022-12-27T03:39:55.156Z,15.43
2022-12-27T03:42:45.796Z,15.95
2022-12-27T03:45:14.970Z,16.02
2022-12-27T03:47:56.009Z,14.73
2022-12-27T03:50:36.862Z,15.45
2022-12-27T03:53:10.653Z,15.57
2022-12-27T03:55:39.166Z,15.63
2022-12-27T03:58:06.639Z,13.23
2022-12-27T04:00:34.001Z,15.05
2022-12-27T04:03:01.436Z,14.63
2022-12-27T04:05:29.616Z,14.35
2022-12-27T04:08:15.430Z,14.10
2022-12-27T04:11:01.335Z,14.48
2022-12-27T04:13:47.289Z,16.48
2022-12-27T04:16:33.147Z,16.45
2022-12-27T04:19:18.985Z,18.05
2022-12-27T04:22:05.201Z,20.27
2022-12-27T04:24:50.811Z,18.45
2022-12-27T04:27:36.584Z,17.08
2022-12-27T04:30:23.128Z,17.50
2022-12-27T04:33:10.818Z,17.48
2022-12-27T04:35:39.215Z,17.63
2022-12-27T04:38:06.608Z,16.40
2022-12-27T04:40:52.537Z,16.48
2022-12-27T04:43:38.235Z,17.35
2022-12-27T04:46:24.123Z,21.33
2022-12-27T04:49:10.364Z,17.77
2022-12-27T04:51:57.236Z,18.58
2022-12-27T04:54:43.148Z,18.75
2022-12-27T04:57:10.551Z,15.18
2022-12-27T04:59:57.876Z,14.95
2022-12-27T05:02:25.498Z,16.35
2022-12-27T05:04:53.241Z,15.77
2022-12-27T05:07:39.199Z,16.05
2022-12-27T05:10:25.966Z,14.90
2022-12-27T05:13:11.915Z,16.75
2022-12-27T05:15:39.408Z,16.33
2022-12-27T05:18:06.811Z,18.48
2022-12-27T05:20:35.328Z,18.05
2022-12-27T05:23:41.281Z,20.27
2022-12-27T05:26:08.708Z,25.25
2022-12-27T05:28:36.257Z,22.50
2022-12-27T05:31:03.897Z,20.50
2022-12-27T05:33:32.490Z,20.17
2022-12-27T05:36:00.588Z,17.75
2022-12-27T05:38:28.241Z,20.33
2022-12-27T05:41:00.362Z,19.35
2022-12-27T05:43:28.661Z,17.80
2022-12-27T05:45:56.388Z,18.15
2022-12-27T05:48:23.864Z,19.48
2022-12-27T05:50:51.431Z,19.85
2022-12-27T05:53:18.804Z,21.58
2022-12-27T05:55:54.494Z,18.52
2022-12-27T05:58:21.969Z,17.60
2022-12-27T06:00:49.455Z,18.15
2022-12-27T06:03:17.089Z,20.17
2022-12-27T06:05:44.664Z,17.77
2022-12-27T06:08:13.287Z,24.38
2022-12-27T06:10:41.643Z,20.63
2022-12-27T06:13:09.143Z,24.38
2022-12-27T06:15:37.806Z,18.30
2022-12-27T06:18:07.062Z,19.38
2022-12-27T06:20:34.775Z,17.58
2022-12-27T06:23:02.216Z,17.30
2022-12-27T06:25:29.714Z,22.70
2022-12-27T06:27:57.061Z,18.52
2022-12-27T06:30:24.437Z,17.65
2022-12-27T06:32:52.842Z,18.23
2022-12-27T06:35:20.307Z,20.77
2022-12-27T06:37:50.197Z,20.45
2022-12-27T06:40:21.162Z,20.77
2022-12-27T06:42:48.511Z,21.05
2022-12-27T06:45:15.978Z,18.45
2022-12-27T06:47:43.369Z,16.75
2022-12-27T06:50:11.185Z,15.63
2022-12-27T06:52:39.689Z,18.70
2022-12-27T06:55:07.285Z,17.10
2022-12-27T06:57:34.831Z,17.25
2022-12-27T07:00:02.578Z,18.65
2022-12-27T07:02:30.068Z,15.05
2022-12-27T07:04:57.560Z,13.65
2022-12-27T07:07:25.225Z,12.98
2022-12-27T07:09:52.632Z,12.63
2022-12-27T07:12:20.036Z,15.93
2022-12-27T07:14:47.446Z,18.02
2022-12-27T07:17:14.888Z,27.23
2022-12-27T07:19:42.789Z,24.30
2022-12-27T07:22:10.242Z,65.22
2022-12-27T07:24:38.193Z,115.85
2022-12-27T07:27:05.775Z,103.97
2022-12-27T07:29:37.948Z,59.73
2022-12-27T07:32:10.869Z,50.53
2022-12-27T07:34:39.399Z,56.05
2022-12-27T07:37:07.105Z,119.82
2022-12-27T07:39:34.529Z,105.75
2022-12-27T07:42:07.933Z,96.27
2022-12-27T07:44:38.280Z,80.93
2022-12-27T07:47:06.085Z,49.75
2022-12-27T07:49:33.470Z,44.97
2022-12-27T07:52:00.940Z,54.40
2022-12-27T07:54:28.347Z,50.60
2022-12-27T07:56:55.755Z,40.22
2022-12-27T07:59:23.336Z,37.33
2022-12-27T08:02:05.843Z,42.17
2022-12-27T08:04:36.356Z,39.90
2022-12-27T08:07:11.206Z,37.83
2022-12-27T08:09:42.131Z,45.58
2022-12-27T08:12:10.518Z,34.17
2022-12-27T08:14:37.905Z,39.30
2022-12-27T08:17:08.797Z,29.70
2022-12-27T08:19:40.614Z,36.70
2022-12-27T08:22:08.088Z,58.40
2022-12-27T08:25:36.514Z,41.22
2022-12-27T08:38:16.966Z,35.78
2022-12-27T08:40:45.965Z,37.08
2022-12-27T08:43:14.690Z,39.75
2022-12-27T08:45:42.193Z,49.60
2022-12-27T08:48:09.794Z,33.53
2022-12-27T08:50:37.554Z,42.65
2022-12-27T08:53:05.981Z,33.75
2022-12-27T08:55:34.352Z,37.17
2022-12-27T08:58:06.125Z,34.45
2022-12-27T09:00:37.311Z,31.97
2022-12-27T09:03:04.827Z,57.63
2022-12-27T09:05:38.054Z,47.08
2022-12-27T09:08:09.063Z,44.53
2022-12-27T09:10:36.709Z,43.83
2022-12-27T09:13:04.592Z,43.13
2022-12-27T09:15:33.126Z,31.83
2022-12-27T09:18:01.796Z,46.60
2022-12-27T09:20:30.297Z,49.33
2022-12-27T09:22:59.525Z,39.80
2022-12-27T09:25:27.004Z,50.63
2022-12-27T09:27:55.396Z,48.55
2022-12-27T09:30:22.946Z,37.63
2022-12-27T09:32:51.431Z,32.10
2022-12-27T09:35:18.801Z,26.67
2022-12-27T09:37:46.250Z,24.17
2022-12-27T09:40:18.147Z,26.58
2022-12-27T09:43:07.482Z,26.42
2022-12-27T09:45:50.644Z,24.92
2022-12-27T09:48:33.197Z,27.40
2022-12-27T09:51:23.933Z,22.87
2022-12-27T09:54:00.006Z,22.23
2022-12-27T09:56:54.438Z,25.80
2022-12-27T09:59:34.649Z,55.15
2022-12-27T10:02:02.309Z,40.30
2022-12-27T10:05:10.022Z,18.77
2022-12-27T10:07:40.336Z,44.35
2022-12-27T10:10:28.405Z,25.95
2022-12-27T10:13:11.228Z,19.70
2022-12-27T10:16:16.027Z,15.95
2022-12-27T10:19:20.634Z,14.47
2022-12-27T10:22:05.912Z,15.32
2022-12-27T10:24:53.639Z,48.25
2022-12-27T10:27:32.089Z,46.42
2022-12-27T10:30:03.212Z,56.00
2022-12-27T10:32:30.741Z,32.57
2022-12-27T10:35:08.124Z,17.30
2022-12-27T10:37:35.614Z,16.13
2022-12-27T10:40:11.530Z,28.00
2022-12-27T10:42:48.052Z,19.92
2022-12-27T10:45:39.876Z,31.87
2022-12-27T10:48:22.755Z,33.15
2022-12-27T10:51:07.273Z,18.35
2022-12-27T10:53:35.251Z,35.85
2022-12-27T10:56:28.290Z,22.25
2022-12-27T10:59:17.170Z,19.67
2022-12-27T11:01:47.764Z,21.80
2022-12-27T11:04:23.656Z,19.42
2022-12-27T11:07:02.912Z,31.48
2022-12-27T11:09:50.590Z,22.92
2022-12-27T11:12:32.714Z,18.33
2022-12-27T11:15:03.255Z,16.02
2022-12-27T11:17:38.908Z,16.15
2022-12-27T11:20:12.717Z,17.85
2022-12-27T11:23:02.423Z,17.35
2022-12-27T11:25:30.766Z,29.47
2022-12-27T11:28:08.388Z,34.80
2022-12-27T11:30:39.362Z,35.45
2022-12-27T11:33:25.305Z,38.25
2022-12-27T11:35:56.214Z,37.40
2022-12-27T11:38:35.461Z,32.57
2022-12-27T11:41:09.833Z,42.67
2022-12-27T11:43:54.255Z,36.53
2022-12-27T11:46:43.032Z,44.45
2022-12-27T11:49:20.389Z,42.08
2022-12-27T11:51:56.960Z,44.13
2022-12-27T11:54:45.908Z,42.35
2022-12-27T11:57:13.249Z,39.47
2022-12-27T12:00:06.284Z,44.20
2022-12-27T12:02:51.907Z,41.97
2022-12-27T12:05:47.828Z,40.70
2022-12-27T12:08:51.034Z,39.58
2022-12-27T12:11:41.149Z,38.30
2022-12-27T12:14:37.633Z,34.10
2022-12-27T12:17:24.574Z,37.60
2022-12-27T12:20:01.129Z,41.40
2022-12-27T12:22:34.450Z,34.50
2022-12-27T12:25:20.947Z,31.33
2022-12-27T12:28:55.704Z,35.47
2022-12-27T12:31:25.063Z,38.03
2022-12-27T12:34:08.489Z,38.33
2022-12-27T12:36:53.283Z,32.47
2022-12-27T12:39:26.948Z,33.17
2022-12-27T12:42:06.870Z,37.85
2022-12-27T12:45:16.796Z,33.42
2022-12-27T12:47:55.812Z,32.93
2022-12-27T12:51:11.296Z,33.95
2022-12-27T12:54:05.996Z,33.53
2022-12-27T12:57:07.039Z,38.08
2022-12-27T13:00:02.229Z,35.78
2022-12-27T13:02:42.070Z,34.10
2022-12-27T13:05:35.778Z,34.00
2022-12-27T13:08:28.265Z,32.35
2022-12-27T13:11:15.181Z,30.00
2022-12-27T13:14:02.014Z,30.05
2022-12-27T13:16:42.822Z,38.07
2022-12-27T13:19:47.807Z,32.13
2022-12-27T13:22:28.664Z,30.88
2022-12-27T13:25:26.619Z,30.30
2022-12-27T13:27:57.596Z,37.15
2022-12-27T13:30:34.908Z,36.10
2022-12-27T13:33:20.311Z,33.88
2022-12-27T13:36:19.219Z,34.22
2022-12-27T13:39:24.538Z,33.58
2022-12-27T13:42:19.387Z,34.67
2022-12-27T13:45:19.767Z,30.70
2022-12-27T13:48:03.260Z,39.65
2022-12-27T13:50:45.686Z,39.67
2022-12-27T13:53:43.651Z,36.88
2022-12-27T13:56:52.626Z,29.38
2022-12-27T13:59:32.081Z,33.57
2022-12-27T14:02:29.418Z,35.03
2022-12-27T14:05:02.880Z,32.60
2022-12-27T14:07:50.596Z,32.60
2022-12-27T14:10:44.282Z,31.00
2022-12-27T14:13:13.217Z,34.67
2022-12-27T14:15:56.472Z,33.35
2022-12-27T14:18:45.190Z,27.85
2022-12-27T14:21:38.725Z,25.30
2022-12-27T14:24:27.179Z,28.42
2022-12-27T14:27:21.875Z,28.70
2022-12-27T14:30:11.192Z,27.30
2022-12-27T14:32:57.048Z,25.42
2022-12-27T14:35:52.546Z,21.88
2022-12-27T14:38:47.538Z,22.75
2022-12-27T14:42:06.278Z,25.63
2022-12-27T14:45:01.801Z,26.60
2022-12-27T14:47:59.725Z,26.50
2022-12-27T14:50:48.429Z,28.65
2022-12-27T14:53:21.714Z,24.02
2022-12-27T14:55:49.025Z,30.03
2022-12-27T14:58:45.344Z,29.23
2022-12-27T15:01:53.155Z,32.03
2022-12-27T15:04:45.188Z,28.73
2022-12-27T15:07:30.477Z,26.95
2022-12-27T15:10:16.356Z,24.37
2022-12-27T15:12:59.594Z,23.48
2022-12-27T15:15:58.195Z,25.55
2022-12-27T15:18:44.210Z,29.80
2022-12-27T15:21:41.547Z,27.00
2022-12-27T15:24:33.842Z,21.97
2022-12-27T15:27:19.911Z,23.05
2022-12-27T15:30:04.977Z,22.48
2022-12-27T15:32:49.663Z,19.90
2022-12-27T15:35:40.294Z,21.60
2022-12-27T15:38:15.628Z,18.67
2022-12-27T15:40:55.991Z,21.75
2022-12-27T15:43:36.326Z,19.55
2022-12-27T15:46:29.746Z,22.92
2022-12-27T15:49:21.275Z,23.92
2022-12-27T15:52:20.702Z,25.93
2022-12-27T15:55:17.677Z,26.67
2022-12-27T15:58:02.977Z,27.90
2022-12-27T16:00:34.394Z,24.65
2022-12-27T16:03:26.104Z,30.33
2022-12-27T16:05:54.019Z,35.70
2022-12-27T16:08:31.014Z,35.83
2022-12-27T16:11:00.675Z,34.53
2022-12-27T16:13:49.251Z,44.60
2022-12-27T16:16:29.186Z,39.60
2022-12-27T16:19:06.902Z,38.07
2022-12-27T16:21:41.630Z,46.30
2022-12-27T16:24:22.575Z,45.42
2022-12-27T16:27:01.733Z,32.90
2022-12-27T16:29:35.311Z,36.45
2022-12-27T16:32:25.807Z,37.80
2022-12-27T16:34:57.306Z,46.00
2022-12-27T16:37:28.807Z,80.43
2022-12-27T16:40:23.059Z,53.92
2022-12-27T16:42:59.484Z,86.00
2022-12-27T16:45:47.515Z,302.80
2022-12-27T16:48:45.799Z,433.75
2022-12-27T16:51:34.220Z,343.15
2022-12-27T16:54:23.628Z,427.02
2022-12-27T16:56:51.054Z,491.60
2022-12-27T16:59:56.916Z,605.97
2022-12-27T17:02:40.670Z,564.30
2022-12-27T17:05:17.397Z,294.80
2022-12-27T17:07:49.074Z,202.98
2022-12-27T17:10:28.406Z,173.95
2022-12-27T17:13:03.068Z,105.18
2022-12-27T17:15:31.513Z,109.00
2022-12-27T17:18:09.596Z,61.97
2022-12-27T17:20:39.283Z,49.65
2022-12-27T17:23:07.780Z,81.65
2022-12-27T17:25:45.099Z,113.28
2022-12-27T17:28:26.723Z,97.13
2022-12-27T17:31:06.156Z,117.20
2022-12-27T17:33:56.602Z,127.63
2022-12-27T17:36:41.602Z,75.65
2022-12-27T17:39:43.701Z,92.30
2022-12-27T17:42:53.652Z,72.68
2022-12-27T17:45:54.798Z,123.15
2022-12-27T17:48:28.395Z,208.57
2022-12-27T17:51:01.712Z,84.80
2022-12-27T17:53:48.244Z,325.05
2022-12-27T17:56:42.335Z,144.50
2022-12-27T17:59:23.594Z,109.00
2022-12-27T18:01:58.078Z,111.18
2022-12-27T18:04:34.389Z,93.82
2022-12-27T18:07:06.592Z,64.30
2022-12-27T18:09:44.206Z,67.63
2022-12-27T18:12:28.397Z,57.40
2022-12-27T18:15:02.962Z,51.75
2022-12-27T18:17:36.039Z,42.40
2022-12-27T18:20:38.521Z,42.35
2022-12-27T18:23:06.442Z,50.90
2022-12-27T18:25:44.640Z,58.25
2022-12-27T18:28:50.407Z,57.45
2022-12-27T18:31:26.205Z,60.03
2022-12-27T18:34:04.216Z,52.92
2022-12-27T18:36:42.726Z,58.10
2022-12-27T18:39:43.583Z,42.58
2022-12-27T18:42:22.957Z,35.58
2022-12-27T18:44:55.417Z,22.83
2022-12-27T18:47:27.319Z,27.55
2022-12-27T18:50:01.193Z,19.30
2022-12-27T18:52:41.032Z,28.50
2022-12-27T18:55:22.309Z,26.23
2022-12-27T18:57:49.859Z,46.65
2022-12-27T19:00:27.561Z,41.22
2022-12-27T19:03:13.924Z,49.15
2022-12-27T19:05:56.288Z,51.72
2022-12-27T19:08:25.713Z,45.60
2022-12-27T19:10:53.132Z,38.88
2022-12-27T19:13:30.773Z,35.38
2022-12-27T19:15:58.881Z,37.85
2022-12-27T19:18:30.161Z,41.85
2022-12-27T19:21:05.256Z,47.08
2022-12-27T19:23:39.382Z,37.80
2022-12-27T19:26:21.520Z,42.05
2022-12-27T19:29:02.848Z,40.92
2022-12-27T19:31:31.870Z,35.75
2022-12-27T19:34:20.077Z,35.95
2022-12-27T19:36:48.400Z,31.98
2022-12-27T19:39:24.087Z,34.88
2022-12-27T19:41:52.826Z,40.08
2022-12-27T19:44:20.621Z,40.33
2022-12-27T19:46:48.055Z,35.35
2022-12-27T19:49:40.860Z,38.63
2022-12-27T19:52:04.097Z,29.85
2022-12-27T19:54:31.683Z,28.02
2022-12-27T19:56:59.148Z,30.30
2022-12-27T19:59:28.684Z,29.33
2022-12-27T20:01:57.688Z,26.48
2022-12-27T20:04:26.340Z,26.83
2022-12-27T20:06:54.878Z,32.53
2022-12-27T20:09:22.567Z,28.63
2022-12-27T20:11:50.374Z,30.15
2022-12-27T20:14:18.297Z,31.05
2022-12-27T20:16:46.738Z,36.40
2022-12-27T20:19:16.777Z,37.40
2022-12-27T20:21:44.563Z,26.63
2022-12-27T20:24:13.152Z,23.02
2022-12-27T20:26:41.670Z,30.08
2022-12-27T20:29:09.969Z,26.20
2022-12-27T20:31:44.169Z,23.67
2022-12-27T20:34:12.744Z,28.40
2022-12-27T20:36:41.693Z,32.80
2022-12-27T20:39:09.929Z,37.92
2022-12-27T20:41:37.464Z,34.35
2022-12-27T20:44:05.335Z,36.85
2022-12-27T20:46:32.951Z,29.50
2022-12-27T20:49:01.447Z,26.33
2022-12-27T20:51:33.694Z,30.77
2022-12-27T20:54:03.420Z,22.80
2022-12-27T20:56:31.706Z,22.40
2022-12-27T20:58:59.348Z,25.67
2022-12-27T21:01:27.437Z,20.45
2022-12-27T21:03:57.025Z,23.48
2022-12-27T21:06:26.844Z,22.77
2022-12-27T21:08:57.133Z,22.05
2022-12-27T21:11:28.768Z,22.02
2022-12-27T21:13:56.695Z,23.75
2022-12-27T21:16:26.548Z,21.40
2022-12-27T21:18:55.053Z,24.08
2022-12-27T21:21:27.926Z,18.70
2022-12-27T21:23:57.506Z,19.63
2022-12-27T21:26:28.776Z,20.23
2022-12-27T21:28:56.527Z,18.80
2022-12-27T21:31:24.401Z,23.48
2022-12-27T21:33:52.008Z,18.50
2022-12-27T21:36:27.640Z,20.90
2022-12-27T21:38:55.755Z,17.63
2022-12-27T21:41:28.781Z,19.58
2022-12-27T21:43:56.866Z,16.70
2022-12-27T21:46:30.659Z,20.10
2022-12-27T21:49:03.324Z,19.02
2022-12-27T21:51:31.941Z,17.77
2022-12-27T21:54:00.072Z,16.38
2022-12-27T21:56:28.328Z,17.80
2022-12-27T21:58:56.511Z,18.15
2022-12-27T22:01:27.656Z,17.00
2022-12-27T22:03:56.826Z,19.00
2022-12-27T22:06:27.002Z,16.40
2022-12-27T22:08:57.699Z,16.23
2022-12-27T22:11:26.789Z,16.40
2022-12-27T22:13:54.865Z,14.43
2022-12-27T22:16:25.057Z,13.93
2022-12-27T22:18:53.075Z,14.55
2022-12-27T22:21:24.488Z,13.63
2022-12-27T22:23:53.788Z,14.05
2022-12-27T22:26:29.895Z,15.70
2022-12-27T22:28:57.956Z,13.93
2022-12-27T22:31:30.579Z,16.92
2022-12-27T22:33:58.177Z,14.93
2022-12-27T22:36:27.156Z,13.93
2022-12-27T22:38:58.776Z,13.82
2022-12-27T22:41:36.310Z,15.35
2022-12-27T22:44:15.443Z,14.10
2022-12-27T22:47:24.912Z,14.00
2022-12-27T22:49:30.805Z,13.57
2022-12-27T22:51:58.113Z,13.02
2022-12-27T22:55:04.645Z,12.85
2022-12-27T22:57:12.849Z,13.18
2022-12-27T22:59:40.306Z,13.38
2022-12-27T23:02:07.937Z,14.52
2022-12-27T23:04:35.641Z,12.68
2022-12-27T23:07:03.210Z,12.65
2022-12-27T23:09:30.988Z,12.10
2022-12-27T23:11:58.600Z,13.48
2022-12-27T23:14:25.951Z,13.93
2022-12-27T23:16:53.597Z,19.05
2022-12-27T23:19:24.502Z,12.68
2022-12-27T23:21:52.041Z,13.43
2022-12-27T23:24:19.459Z,13.70
2022-12-27T23:26:46.893Z,16.52
2022-12-27T23:29:15.054Z,16.35
2022-12-27T23:31:55.398Z,16.92
2022-12-27T23:34:28.325Z,15.65
2022-12-27T23:36:57.830Z,17.17
2022-12-27T23:39:25.473Z,17.20
2022-12-27T23:41:52.848Z,17.35
2022-12-27T23:44:33.653Z,21.83
2022-12-27T23:47:05.783Z,18.60
2022-12-27T23:49:33.848Z,17.02
2022-12-27T23:52:01.415Z,16.27
2022-12-27T23:54:28.876Z,20.23
2022-12-27T23:56:56.374Z,18.88
2022-12-27T23:59:23.817Z,22.30
